createdAt,value
2023-04-16T00:00:16.722Z,44
2023-04-16T00:05:19.462Z,45
2023-04-16T00:10:20.695Z,45
2023-04-16T00:15:14.767Z,45
2023-04-16T00:20:15.709Z,45
2023-04-16T00:25:14.889Z,45
2023-04-16T00:30:15.805Z,44
2023-04-16T00:35:15.695Z,44
2023-04-16T00:40:18.716Z,45
2023-04-16T00:45:18.543Z,43
2023-04-16T00:50:22.360Z,43
2023-04-16T00:55:22.579Z,43
2023-04-16T01:00:24.455Z,44
2023-04-16T01:05:14.304Z,44
2023-04-16T01:10:20.720Z,45
2023-04-16T01:15:14.556Z,44
2023-04-16T01:20:18.533Z,43
2023-04-16T01:25:14.646Z,43
2023-04-16T01:30:26.681Z,44
2023-04-16T01:35:24.805Z,44
2023-04-16T01:40:19.589Z,44
2023-04-16T01:45:18.503Z,44
2023-04-16T01:50:20.595Z,43
2023-04-16T01:55:14.590Z,44
2023-04-16T02:00:22.883Z,44
2023-04-16T02:05:21.636Z,43
2023-04-16T02:10:22.706Z,44
2023-04-16T02:15:23.030Z,44
2023-04-16T02:20:15.923Z,44
2023-04-16T02:25:15.899Z,44
2023-04-16T02:30:26.298Z,43
2023-04-16T02:35:20.328Z,43
2023-04-16T02:40:22.158Z,44
2023-04-16T02:45:18.752Z,44
2023-04-16T02:50:21.770Z,43
2023-04-16T02:55:18.674Z,44
2023-04-16T03:00:20.812Z,44
2023-04-16T03:05:15.640Z,44
2023-04-16T03:10:20.876Z,44
2023-04-16T03:15:19.613Z,44
2023-04-16T03:20:14.717Z,42
2023-04-16T03:25:14.787Z,44
2023-04-16T03:30:14.891Z,43
2023-04-16T03:35:13.725Z,44
2023-04-16T03:40:20.796Z,44
2023-04-16T03:45:27.611Z,44
2023-04-16T03:50:14.698Z,44
2023-04-16T03:55:15.062Z,44
2023-04-16T04:00:19.966Z,44
2023-04-16T04:05:18.845Z,44
2023-04-16T04:10:15.564Z,44
2023-04-16T04:15:16.445Z,44
2023-04-16T04:20:18.726Z,44
2023-04-16T04:25:18.580Z,43
2023-04-16T04:30:16.674Z,45
2023-04-16T04:35:22.610Z,44
2023-04-16T04:40:26.607Z,45
2023-04-16T04:45:18.414Z,44
2023-04-16T04:50:22.689Z,43
2023-04-16T04:55:22.415Z,44
2023-04-16T05:00:18.216Z,43
2023-04-16T05:05:20.684Z,44
2023-04-16T05:10:14.746Z,44
2023-04-16T05:15:23.010Z,43
2023-04-16T05:20:19.792Z,44
2023-04-16T05:25:18.896Z,44
2023-04-16T05:30:19.808Z,44
2023-04-16T05:35:17.929Z,44
2023-04-16T05:40:17.639Z,44
2023-04-16T05:45:14.873Z,44
2023-04-16T05:50:15.653Z,44
2023-04-16T05:55:21.065Z,44
2023-04-16T06:00:17.805Z,44
2023-04-16T06:05:19.033Z,42
2023-04-16T06:10:16.331Z,44
2023-04-16T06:15:14.201Z,44
2023-04-16T06:20:22.718Z,42
2023-04-16T06:25:20.689Z,44
2023-04-16T06:30:16.608Z,43
2023-04-16T06:35:24.795Z,44
2023-04-16T06:40:15.639Z,43
2023-04-16T06:45:20.498Z,44
2023-04-16T06:50:18.290Z,44
2023-04-16T06:55:22.442Z,44
2023-04-16T07:00:26.791Z,44
2023-04-16T07:05:16.440Z,44
2023-04-16T07:10:20.380Z,44
2023-04-16T07:15:16.436Z,43
2023-04-16T07:20:26.407Z,43
2023-04-16T07:25:16.797Z,44
2023-04-16T07:30:22.701Z,44
2023-04-16T07:35:20.639Z,43
2023-04-16T07:40:18.678Z,43
2023-04-16T07:45:26.583Z,45
2023-04-16T07:50:14.470Z,44
2023-04-16T07:55:14.296Z,45
2023-04-16T08:00:20.477Z,43
2023-04-16T08:05:18.767Z,44
2023-04-16T08:10:17.471Z,45
2023-04-16T08:15:16.539Z,44
2023-04-16T08:20:23.449Z,44
2023-04-16T08:25:16.213Z,44
2023-04-16T08:30:21.356Z,44
2023-04-16T08:35:28.229Z,46
2023-04-16T08:40:18.001Z,45
2023-04-16T08:45:16.051Z,45
2023-04-16T08:50:14.109Z,55
2023-04-16T08:55:14.038Z,53
2023-04-16T09:00:18.026Z,53
2023-04-16T09:05:16.400Z,49
2023-04-16T09:10:23.525Z,48
2023-04-16T09:15:18.043Z,55
2023-04-16T09:20:15.763Z,54
2023-04-16T09:25:18.960Z,52
2023-04-16T09:30:14.002Z,52
2023-04-16T09:35:15.699Z,51
2023-04-16T09:40:15.309Z,50
2023-04-16T09:45:19.632Z,49
2023-04-16T09:55:16.402Z,50
2023-04-16T10:00:20.516Z,49
2023-04-16T10:05:21.890Z,48
2023-04-16T10:10:13.753Z,48
2023-04-16T10:15:17.662Z,48
2023-04-16T10:20:17.853Z,48
2023-04-16T10:25:16.183Z,49
2023-04-16T10:30:18.788Z,49
2023-04-16T10:35:14.567Z,49
2023-04-16T10:40:18.648Z,49
2023-04-16T10:45:22.611Z,48
2023-04-16T10:50:19.463Z,49
2023-04-16T10:55:22.375Z,48
2023-04-16T11:00:16.435Z,49
2023-04-16T11:05:16.463Z,46
2023-04-16T11:10:19.535Z,48
2023-04-16T11:15:17.109Z,49
2023-04-16T11:20:20.857Z,47
2023-04-16T11:25:18.386Z,47
2023-04-16T11:30:14.942Z,48
2023-04-16T11:35:16.113Z,47
2023-04-16T11:40:30.018Z,48
2023-04-16T11:45:20.067Z,48
2023-04-16T11:50:19.780Z,47
2023-04-16T11:55:16.982Z,48
2023-04-16T12:00:25.050Z,48
2023-04-16T12:05:18.735Z,48
2023-04-16T12:10:18.603Z,48
2023-04-16T12:15:17.504Z,48
2023-04-16T12:20:20.606Z,47
2023-04-16T12:25:16.526Z,48
2023-04-16T12:30:14.547Z,49
2023-04-16T12:35:24.714Z,48
2023-04-16T12:40:19.030Z,47
2023-04-16T12:45:17.893Z,48
2023-04-16T12:50:20.230Z,47
2023-04-16T12:55:18.397Z,48
2023-04-16T13:00:14.593Z,48
2023-04-16T13:05:15.976Z,48
2023-04-16T13:10:14.202Z,48
2023-04-16T13:15:28.364Z,48
2023-04-16T13:20:24.651Z,47
2023-04-16T13:25:30.459Z,48
2023-04-16T13:30:18.499Z,56
2023-04-16T13:35:22.391Z,53
2023-04-16T13:40:18.201Z,52
2023-04-16T13:45:14.220Z,52
2023-04-16T13:50:22.219Z,51
2023-04-16T13:55:14.326Z,53
2023-04-16T14:00:14.442Z,54
2023-04-16T14:05:17.878Z,50
2023-04-16T14:10:17.977Z,54
2023-04-16T14:15:18.128Z,52
2023-04-16T14:20:18.495Z,52
2023-04-16T14:25:18.359Z,51
2023-04-16T14:30:18.292Z,51
2023-04-16T14:35:26.573Z,51
2023-04-16T14:40:14.411Z,52
2023-04-16T14:45:22.312Z,50
2023-04-16T14:50:16.284Z,50
2023-04-16T14:55:26.304Z,51
2023-04-16T15:00:22.226Z,51
2023-04-16T15:05:22.048Z,50
2023-04-16T15:10:16.052Z,52
2023-04-16T15:15:18.504Z,50
2023-04-16T15:20:16.597Z,50
2023-04-16T15:25:14.418Z,52
2023-04-16T15:30:19.139Z,50
2023-04-16T15:35:15.968Z,50
2023-04-16T15:40:16.301Z,50
2023-04-16T15:45:14.427Z,50
2023-04-16T15:50:18.756Z,50
2023-04-16T15:55:29.595Z,50
2023-04-16T16:00:26.412Z,50
2023-04-16T16:05:18.300Z,50
2023-04-16T16:10:18.267Z,50
2023-04-16T16:15:14.205Z,52
2023-04-16T16:20:18.417Z,52
2023-04-16T16:25:18.535Z,52
2023-04-16T16:30:20.458Z,53
2023-04-16T16:35:18.360Z,53
2023-04-16T16:40:14.333Z,53
2023-04-16T16:45:16.333Z,53
2023-04-16T16:50:19.410Z,55
2023-04-16T16:55:19.038Z,53
2023-04-16T17:00:14.578Z,54
2023-04-16T17:05:28.746Z,53
2023-04-16T17:10:28.626Z,52
2023-04-16T17:15:20.678Z,53
2023-04-16T17:20:13.914Z,52
2023-04-16T17:25:15.795Z,51
2023-04-16T17:30:14.161Z,53
2023-04-16T17:35:20.055Z,52
2023-04-16T17:40:24.429Z,52
2023-04-16T17:45:14.287Z,52
2023-04-16T17:50:16.002Z,52
2023-04-16T17:55:19.982Z,52
2023-04-16T18:00:15.851Z,52
2023-04-16T18:05:14.510Z,52
2023-04-16T18:10:14.703Z,52
2023-04-16T18:15:20.594Z,52
2023-04-16T18:20:16.408Z,52
2023-04-16T18:25:22.623Z,50
2023-04-16T18:30:26.912Z,52
2023-04-16T18:35:13.736Z,50
2023-04-16T18:40:15.672Z,51
2023-04-16T18:45:22.259Z,51
2023-04-16T18:50:14.380Z,53
2023-04-16T18:55:18.237Z,51
2023-04-16T19:00:14.122Z,51
2023-04-16T19:05:16.054Z,51
2023-04-16T19:10:20.104Z,50
2023-04-16T19:15:17.966Z,50
2023-04-16T19:20:23.771Z,51
2023-04-16T19:25:16.868Z,50
2023-04-16T19:30:18.108Z,51
2023-04-16T19:35:18.001Z,50
2023-04-16T19:40:22.011Z,50
2023-04-16T19:45:16.293Z,54
2023-04-16T19:50:16.232Z,54
2023-04-16T19:55:17.935Z,54
2023-04-16T20:00:13.693Z,53
2023-04-16T20:05:18.623Z,54
2023-04-16T20:10:16.508Z,51
2023-04-16T20:15:16.419Z,52
2023-04-16T20:20:18.387Z,53
2023-04-16T20:25:16.268Z,52
2023-04-16T20:30:18.201Z,52
2023-04-16T20:35:24.088Z,54
2023-04-16T20:40:16.204Z,54
2023-04-16T20:45:18.490Z,53
2023-04-16T20:50:18.411Z,54
2023-04-16T20:55:20.373Z,53
2023-04-16T21:00:18.238Z,53
2023-04-16T21:05:16.069Z,52
2023-04-16T21:10:19.941Z,52
2023-04-16T21:15:14.012Z,52
2023-04-16T21:20:22.345Z,52
2023-04-16T21:25:16.451Z,52
2023-04-16T21:30:20.525Z,52
2023-04-16T21:35:22.496Z,52
2023-04-16T21:40:16.238Z,52
2023-04-16T21:45:18.400Z,52
2023-04-16T21:50:16.498Z,51
2023-04-16T21:55:14.533Z,51
2023-04-16T22:00:20.594Z,51
2023-04-16T22:05:28.590Z,51
2023-04-16T22:10:16.358Z,52
2023-04-16T22:15:15.431Z,52
2023-04-16T22:20:16.185Z,51
2023-04-16T22:25:20.279Z,51
2023-04-16T22:30:18.306Z,50
2023-04-16T22:35:24.786Z,51
2023-04-16T22:40:23.676Z,51
2023-04-16T22:45:14.639Z,50
2023-04-16T22:50:18.864Z,51
2023-04-16T22:55:15.618Z,51
2023-04-16T23:00:14.823Z,50
2023-04-16T23:05:15.809Z,50
2023-04-16T23:10:13.819Z,50
2023-04-16T23:15:17.896Z,49
2023-04-16T23:20:18.018Z,49
2023-04-16T23:25:15.781Z,50
2023-04-16T23:30:15.892Z,50
2023-04-16T23:35:17.959Z,50
2023-04-16T23:40:13.668Z,50
2023-04-16T23:45:20.615Z,50
2023-04-16T23:50:18.681Z,49
2023-04-16T23:55:16.428Z,50
